Time;durP1;ratioP1;P1;durP2;ratioP2;P2;SDS_P1;SDS_P2;PMS_P1;PMS_P2;Temp;Humidity;BMP_temperature;BMP_pressure;BME280_temperature;BME280_humidity;BME280_pressure;Samples;Min_cycle;Max_cycle;Signal;HPM_P1;HPM_P2
2021/04/17 00:00:20;;;;;;;16.70;15.50;;;5.00;99.90;;;;;;4992734;28;20462;-69
2021/04/17 00:02:47;;;;;;;16.40;15.00;;;5.10;99.90;;;;;;4992864;28;21002;-69
2021/04/17 00:05:14;;;;;;;15.47;14.33;;;5.10;99.90;;;;;;4992184;28;20454;-69
2021/04/17 00:07:40;;;;;;;17.70;16.37;;;5.10;99.90;;;;;;4992413;28;20447;-69
2021/04/17 00:10:08;;;;;;;17.77;16.30;;;5.10;99.90;;;;;;4992426;28;20462;-69
2021/04/17 00:12:35;;;;;;;16.03;14.90;;;5.00;99.90;;;;;;4992175;28;20489;-69
2021/04/17 00:15:01;;;;;;;17.77;16.33;;;5.00;99.90;;;;;;4992506;28;20456;-69
2021/04/17 00:17:29;;;;;;;16.87;15.63;;;5.00;99.90;;;;;;4992083;28;20490;-69
2021/04/17 00:19:55;;;;;;;17.80;16.50;;;4.90;99.90;;;;;;4992194;28;20456;-69
2021/04/17 00:22:22;;;;;;;16.87;15.60;;;4.90;99.90;;;;;;4992244;28;20461;-69
2021/04/17 00:24:48;;;;;;;17.80;16.50;;;4.90;99.90;;;;;;4992123;28;20958;-69
2021/04/17 00:27:15;;;;;;;19.40;17.73;;;4.80;99.90;;;;;;4991746;28;20451;-69
2021/04/17 00:29:42;;;;;;;18.37;16.97;;;4.80;99.90;;;;;;4992089;28;20455;-69
2021/04/17 00:32:09;;;;;;;17.77;16.33;;;4.80;99.90;;;;;;4991911;28;20458;-69
2021/04/17 00:34:35;;;;;;;18.03;16.77;;;4.70;99.90;;;;;;4991723;28;20457;-69
2021/04/17 00:37:02;;;;;;;17.13;15.87;;;4.70;99.90;;;;;;4992102;28;20446;-69
2021/04/17 00:39:28;;;;;;;18.67;16.97;;;4.60;99.90;;;;;;4992010;28;20457;-69
2021/04/17 00:41:54;;;;;;;19.10;17.50;;;4.60;99.90;;;;;;4992022;28;20447;-69
2021/04/17 00:44:20;;;;;;;19.70;18.20;;;4.70;99.90;;;;;;4991821;28;20457;-69
2021/04/17 00:46:49;;;;;;;18.70;17.27;;;4.70;99.90;;;;;;4991597;28;20471;-69
2021/04/17 00:49:15;;;;;;;17.60;16.20;;;4.80;99.90;;;;;;4991659;28;20485;-69
2021/04/17 00:51:41;;;;;;;19.23;17.67;;;4.70;99.90;;;;;;4991962;28;20532;-69
2021/04/17 00:54:08;;;;;;;18.40;17.07;;;4.70;99.90;;;;;;4991494;28;20487;-69
2021/04/17 00:56:35;;;;;;;19.83;18.10;;;4.80;99.90;;;;;;4991743;28;20457;-69
2021/04/17 00:59:01;;;;;;;19.17;17.67;;;4.80;99.90;;;;;;4991598;28;20457;-69
2021/04/17 01:01:28;;;;;;;17.93;16.30;;;4.80;99.90;;;;;;4991388;28;20447;-69
2021/04/17 01:03:58;;;;;;;20.13;18.57;;;4.90;99.90;;;;;;4991691;28;20493;-69
2021/04/17 01:06:32;;;;;;;17.67;16.47;;;5.00;99.90;;;;;;4991845;28;20446;-69
2021/04/17 01:09:04;;;;;;;20.50;18.70;;;5.00;99.90;;;;;;4991570;28;20845;-69
2021/04/17 01:11:36;;;;;;;16.13;15.10;;;5.00;99.90;;;;;;4991625;28;20451;-69
2021/04/17 01:14:04;;;;;;;18.20;16.80;;;5.00;99.90;;;;;;4991128;28;20947;-70
2021/04/17 01:16:31;;;;;;;17.40;15.97;;;5.00;99.90;;;;;;4991283;28;20505;-68
2021/04/17 01:19:00;;;;;;;18.00;16.70;;;4.90;99.90;;;;;;4991237;28;20463;-68
2021/04/17 01:21:27;;;;;;;20.47;18.87;;;4.80;99.90;;;;;;4991629;28;20908;-69
2021/04/17 01:24:00;;;;;;;17.77;16.30;;;4.80;99.90;;;;;;4991156;28;20456;-68
2021/04/17 01:26:28;;;;;;;17.87;16.47;;;4.80;99.90;;;;;;4991456;28;21156;-69
2021/04/17 01:28:56;;;;;;;18.90;17.30;;;4.90;99.90;;;;;;4991319;28;20648;-68
2021/04/17 01:31:25;;;;;;;18.70;17.40;;;4.90;99.90;;;;;;4991253;28;20454;-69
2021/04/17 01:33:56;;;;;;;18.83;17.40;;;5.00;99.90;;;;;;4991233;28;20491;-69
2021/04/17 01:36:23;;;;;;;19.27;17.57;;;5.00;99.90;;;;;;4991246;28;20465;-68
2021/04/17 01:38:51;;;;;;;19.20;17.70;;;5.00;99.90;;;;;;4994119;28;20515;-69
2021/04/17 01:41:20;;;;;;;18.03;16.73;;;4.90;99.90;;;;;;4995334;28;20449;-69
2021/04/17 01:43:51;;;;;;;17.33;16.00;;;4.80;99.90;;;;;;4995181;28;20503;-69
2021/04/17 01:46:20;;;;;;;19.47;18.00;;;4.80;99.90;;;;;;4995195;28;20458;-69
2021/04/17 01:48:50;;;;;;;17.87;16.27;;;4.80;99.90;;;;;;4994919;28;20918;-69
2021/04/17 01:51:18;;;;;;;18.97;17.27;;;4.70;99.90;;;;;;4995397;28;20454;-69
2021/04/17 01:53:48;;;;;;;18.20;16.80;;;4.60;99.90;;;;;;4994938;28;20490;-68
2021/04/17 01:56:14;;;;;;;20.30;18.70;;;4.70;99.90;;;;;;4991355;28;20443;-68
2021/04/17 01:58:42;;;;;;;20.37;18.60;;;4.40;99.90;;;;;;4994041;28;20493;-68
2021/04/17 02:01:09;;;;;;;19.10;17.60;;;4.30;99.90;;;;;;4993767;28;20449;-68
2021/04/17 02:03:36;;;;;;;20.67;19.00;;;4.30;99.90;;;;;;4991686;28;20485;-69
2021/04/17 02:06:03;;;;;;;19.33;18.00;;;4.30;99.90;;;;;;4993753;28;20449;-68
2021/04/17 02:08:29;;;;;;;19.80;18.30;;;4.20;99.90;;;;;;4993464;28;20449;-68
2021/04/17 02:10:55;;;;;;;19.67;18.07;;;4.30;99.90;;;;;;4993241;28;21002;-69
2021/04/17 02:13:22;;;;;;;21.43;19.57;;;4.30;99.90;;;;;;4993233;28;20497;-69
2021/04/17 02:15:49;;;;;;;20.93;19.30;;;4.30;99.90;;;;;;4993249;28;20466;-67
2021/04/17 02:18:27;;;;;;;23.23;21.07;;;4.40;99.90;;;;;;4993441;28;20446;-67
2021/04/17 02:21:01;;;;;;;20.10;18.50;;;4.40;99.90;;;;;;4994289;28;20450;-68
2021/04/17 02:23:29;;;;;;;20.53;18.87;;;4.40;99.90;;;;;;4994818;28;20837;-67
2021/04/17 02:25:56;;;;;;;20.13;18.53;;;4.40;99.90;;;;;;4994434;28;20485;-68
2021/04/17 02:28:23;;;;;;;20.23;18.53;;;4.40;99.90;;;;;;4994281;28;20459;-68
2021/04/17 02:30:49;;;;;;;20.50;18.80;;;4.50;99.90;;;;;;4994162;28;20458;-68
2021/04/17 02:33:16;;;;;;;19.70;18.10;;;4.40;99.90;;;;;;4994102;28;20491;-69
2021/04/17 02:35:43;;;;;;;19.70;18.00;;;4.40;99.90;;;;;;4994153;28;20454;-68
2021/04/17 02:38:09;;;;;;;20.97;19.27;;;4.50;99.90;;;;;;4994042;28;20457;-68
2021/04/17 02:40:35;;;;;;;19.87;18.20;;;4.50;99.90;;;;;;4994370;28;20817;-69
2021/04/17 02:43:01;;;;;;;18.87;17.27;;;4.50;99.90;;;;;;4994571;28;20879;-69
2021/04/17 02:45:28;;;;;;;20.63;18.93;;;4.50;99.90;;;;;;4994091;28;20461;-68
2021/04/17 02:47:54;;;;;;;20.97;19.37;;;4.60;99.90;;;;;;4993521;28;20475;-69
2021/04/17 02:50:20;;;;;;;22.53;20.70;;;4.50;99.90;;;;;;4993608;28;20482;-68
2021/04/17 02:52:48;;;;;;;21.03;19.43;;;4.60;99.90;;;;;;4993976;28;20529;-68
2021/04/17 02:55:15;;;;;;;21.23;19.57;;;4.70;99.90;;;;;;4993674;28;20463;-68
2021/04/17 02:57:41;;;;;;;20.63;19.00;;;4.70;99.90;;;;;;4993747;28;20452;-68
2021/04/17 03:00:10;;;;;;;20.77;19.07;;;4.70;99.90;;;;;;4993812;28;20552;-68
2021/04/17 03:02:37;;;;;;;21.60;19.90;;;4.70;99.90;;;;;;4993626;28;20885;-68
2021/04/17 03:05:04;;;;;;;20.70;18.80;;;4.70;99.90;;;;;;4993952;28;20558;-67
2021/04/17 03:07:30;;;;;;;21.73;20.10;;;4.60;99.90;;;;;;4993362;28;20447;-69
2021/04/17 03:09:57;;;;;;;23.47;21.27;;;4.60;99.90;;;;;;4993341;28;20960;-69
2021/04/17 03:12:23;;;;;;;21.70;19.80;;;4.50;99.90;;;;;;4993465;28;20467;-70
2021/04/17 03:14:49;;;;;;;22.23;20.20;;;4.50;99.90;;;;;;4993450;28;20446;-69
2021/04/17 03:17:16;;;;;;;20.80;19.20;;;4.60;99.90;;;;;;4993516;28;20474;-70
2021/04/17 03:19:43;;;;;;;20.77;19.17;;;4.70;99.90;;;;;;4993263;28;20459;-69
2021/04/17 03:22:09;;;;;;;21.60;19.90;;;4.60;99.90;;;;;;4993027;28;20895;-69
2021/04/17 03:24:36;;;;;;;21.73;19.77;;;4.70;99.90;;;;;;4993261;28;20456;-69
2021/04/17 03:27:05;;;;;;;20.27;18.67;;;4.80;99.90;;;;;;4993367;28;20490;-69
2021/04/17 03:29:31;;;;;;;22.20;20.33;;;4.80;99.90;;;;;;4993306;28;20447;-69
2021/04/17 03:31:58;;;;;;;19.73;17.93;;;4.80;99.90;;;;;;4993099;28;20446;-69
2021/04/17 03:34:24;;;;;;;21.57;19.93;;;4.80;99.90;;;;;;4992921;28;20484;-69
2021/04/17 03:36:50;;;;;;;20.67;18.67;;;4.90;99.90;;;;;;4993045;28;20937;-69
2021/04/17 03:39:17;;;;;;;22.23;20.63;;;4.80;99.90;;;;;;4993160;28;20452;-69
2021/04/17 03:41:43;;;;;;;21.30;19.60;;;4.90;99.90;;;;;;4993107;28;20467;-70
2021/04/17 03:44:10;;;;;;;21.50;19.90;;;4.90;99.90;;;;;;4992809;28;20924;-69
2021/04/17 03:46:37;;;;;;;21.67;19.80;;;5.00;99.90;;;;;;4992657;28;20466;-70
2021/04/17 03:49:03;;;;;;;21.33;19.63;;;5.00;99.90;;;;;;4991506;28;20506;-69
2021/04/17 03:51:29;;;;;;;20.73;19.10;;;5.00;99.90;;;;;;4992708;28;20447;-68
2021/04/17 03:53:55;;;;;;;22.50;20.20;;;5.00;99.90;;;;;;4992631;28;20502;-68
2021/04/17 03:56:22;;;;;;;22.90;21.20;;;4.90;99.90;;;;;;4992835;28;20462;-68
2021/04/17 03:58:48;;;;;;;20.60;18.90;;;4.80;99.90;;;;;;4992596;28;20454;-69
2021/04/17 04:01:15;;;;;;;21.43;19.83;;;4.70;99.90;;;;;;4991857;28;20461;-67
2021/04/17 04:03:42;;;;;;;21.83;20.13;;;4.70;99.90;;;;;;4992600;28;20447;-69
2021/04/17 04:06:08;;;;;;;23.57;21.50;;;4.60;99.90;;;;;;4992601;28;20464;-69
2021/04/17 04:08:35;;;;;;;22.57;20.77;;;4.40;99.90;;;;;;4992641;28;20458;-69
2021/04/17 04:11:01;;;;;;;23.43;21.43;;;4.40;99.90;;;;;;4992490;28;20558;-69
2021/04/17 04:13:28;;;;;;;21.83;20.13;;;4.30;99.90;;;;;;4992264;28;21071;-69
2021/04/17 04:15:54;;;;;;;22.23;20.50;;;4.30;99.90;;;;;;4992184;28;20444;-69
2021/04/17 04:18:21;;;;;;;22.40;20.63;;;4.40;99.90;;;;;;4992343;28;20454;-70
2021/04/17 04:20:47;;;;;;;23.60;21.70;;;4.50;99.90;;;;;;4992560;28;20459;-69
2021/04/17 04:23:13;;;;;;;24.40;22.30;;;4.50;99.90;;;;;;4992265;28;20451;-68
2021/04/17 04:25:40;;;;;;;22.10;20.40;;;4.60;99.90;;;;;;4992212;28;20535;-69
2021/04/17 04:28:06;;;;;;;23.10;21.30;;;4.70;99.90;;;;;;4992284;28;20454;-69
2021/04/17 04:30:33;;;;;;;22.23;20.43;;;4.70;99.90;;;;;;4991928;28;20825;-69
2021/04/17 04:32:59;;;;;;;22.90;20.93;;;4.80;99.90;;;;;;4992020;28;20996;-69
2021/04/17 04:35:26;;;;;;;21.57;19.63;;;4.90;99.90;;;;;;4991941;28;20463;-68
2021/04/17 04:37:52;;;;;;;23.67;21.47;;;4.90;99.90;;;;;;4991899;28;20461;-68
2021/04/17 04:40:19;;;;;;;20.97;19.20;;;5.00;99.90;;;;;;4992025;28;20452;-68
2021/04/17 04:42:45;;;;;;;22.13;20.50;;;5.00;99.90;;;;;;4991829;28;20446;-68
2021/04/17 04:45:12;;;;;;;20.83;19.20;;;5.00;99.90;;;;;;4991855;28;20446;-68
2021/04/17 04:47:38;;;;;;;22.10;20.40;;;5.00;99.90;;;;;;4991640;28;20483;-68
2021/04/17 04:50:05;;;;;;;23.20;20.90;;;4.90;99.90;;;;;;4991744;28;20550;-68
2021/04/17 04:52:32;;;;;;;22.07;19.97;;;4.90;99.90;;;;;;4991524;28;20852;-68
2021/04/17 04:54:59;;;;;;;24.33;22.33;;;5.00;99.90;;;;;;4991783;28;20458;-68
2021/04/17 04:57:25;;;;;;;22.60;20.80;;;5.10;99.90;;;;;;4991901;28;20451;-68
2021/04/17 04:59:51;;;;;;;21.90;20.10;;;5.30;99.90;;;;;;4991617;28;20459;-69
2021/04/17 05:02:18;;;;;;;23.53;21.53;;;5.20;99.90;;;;;;4991986;28;20451;-68
2021/04/17 05:04:44;;;;;;;22.70;20.83;;;5.10;99.90;;;;;;4991449;28;20460;-68
2021/04/17 05:07:10;;;;;;;24.30;22.03;;;5.00;99.90;;;;;;4991493;28;21073;-69
2021/04/17 05:09:37;;;;;;;22.70;21.00;;;5.00;99.90;;;;;;4991174;28;20456;-69
2021/04/17 05:12:05;;;;;;;23.83;22.00;;;5.00;99.90;;;;;;4991588;28;20963;-68
2021/04/17 05:14:31;;;;;;;23.27;21.33;;;5.10;99.90;;;;;;4991509;28;20495;-69
2021/04/17 05:16:57;;;;;;;23.77;21.67;;;5.00;99.90;;;;;;4991545;28;20792;-67
2021/04/17 05:19:25;;;;;;;23.63;21.30;;;5.00;99.90;;;;;;4991506;28;20462;-68
2021/04/17 05:21:51;;;;;;;22.43;20.47;;;5.10;99.90;;;;;;4991100;28;20454;-68
2021/04/17 05:24:18;;;;;;;23.87;22.00;;;5.20;99.90;;;;;;4991820;28;20446;-69
2021/04/17 05:26:45;;;;;;;24.60;22.20;;;5.10;99.90;;;;;;4991381;28;20454;-69
2021/04/17 05:29:11;;;;;;;23.50;21.60;;;5.10;99.90;;;;;;4991398;28;20646;-71
2021/04/17 05:31:37;;;;;;;23.13;21.07;;;5.20;99.90;;;;;;4991245;28;20455;-68
2021/04/17 05:34:05;;;;;;;22.97;20.97;;;5.40;99.90;;;;;;4991071;28;21016;-69
2021/04/17 05:36:32;;;;;;;23.90;21.80;;;5.40;99.90;;;;;;4991326;28;20455;-69
2021/04/17 05:38:59;;;;;;;21.10;19.50;;;5.40;99.90;;;;;;4991456;28;20451;-68
2021/04/17 05:41:25;;;;;;;21.43;19.67;;;5.40;99.90;;;;;;4991266;28;20451;-68
2021/04/17 05:43:53;;;;;;;22.50;20.63;;;5.40;99.90;;;;;;4991072;28;20972;-68
2021/04/17 05:46:19;;;;;;;21.50;19.93;;;5.30;99.90;;;;;;4991139;28;20464;-68
2021/04/17 05:48:45;;;;;;;23.70;21.80;;;5.30;99.90;;;;;;4990898;28;20491;-67
2021/04/17 05:51:11;;;;;;;19.50;17.90;;;5.40;99.90;;;;;;4991451;28;20895;-67
2021/04/17 05:53:38;;;;;;;20.80;18.97;;;5.50;99.90;;;;;;4991192;28;20490;-67
2021/04/17 05:56:05;;;;;;;22.20;20.50;;;5.60;99.90;;;;;;4991650;28;20448;-67
2021/04/17 05:58:31;;;;;;;23.50;21.30;;;5.60;99.90;;;;;;4990729;28;20462;-67
2021/04/17 06:00:58;;;;;;;23.23;21.10;;;5.90;99.90;;;;;;4990886;28;20450;-67
2021/04/17 06:03:27;;;;;;;22.17;20.57;;;6.00;99.90;;;;;;4990886;28;20450;-67
2021/04/17 06:05:53;;;;;;;22.87;21.00;;;5.80;99.90;;;;;;4990783;28;20485;-68
2021/04/17 06:08:20;;;;;;;22.93;20.87;;;5.70;99.90;;;;;;4991061;28;20515;-73
2021/04/17 06:10:46;;;;;;;22.37;20.60;;;5.80;99.90;;;;;;4991113;28;20510;-72
2021/04/17 06:13:12;;;;;;;23.77;21.77;;;5.70;99.90;;;;;;4990233;28;20480;-72
2021/04/17 06:15:38;;;;;;;23.00;20.80;;;5.80;99.90;;;;;;4990692;28;20867;-73
2021/04/17 06:18:05;;;;;;;23.20;21.20;;;5.90;99.90;;;;;;4990602;28;20446;-72
2021/04/17 06:20:32;;;;;;;22.00;20.27;;;5.90;99.90;;;;;;4990575;28;20549;-73
2021/04/17 06:22:58;;;;;;;21.47;19.73;;;5.90;99.90;;;;;;4990456;28;20511;-72
2021/04/17 06:25:24;;;;;;;21.87;19.97;;;5.90;99.90;;;;;;4993926;28;20462;-72
2021/04/17 06:27:50;;;;;;;21.63;19.93;;;5.90;99.90;;;;;;4993927;28;20456;-72
2021/04/17 06:30:18;;;;;;;24.13;22.07;;;6.10;99.90;;;;;;4992287;28;20488;-72
2021/04/17 06:32:44;;;;;;;23.70;21.80;;;6.10;99.90;;;;;;4993598;28;20446;-72
2021/04/17 06:35:12;;;;;;;23.07;21.07;;;6.30;99.90;;;;;;4993469;28;20453;-72
2021/04/17 06:37:38;;;;;;;22.20;19.87;;;6.30;99.90;;;;;;4993555;28;20455;-72
2021/04/17 06:40:05;;;;;;;22.90;21.10;;;6.40;99.90;;;;;;4993814;28;20465;-72
2021/04/17 06:42:34;;;;;;;23.00;21.30;;;6.40;99.90;;;;;;4993878;28;20885;-72
2021/04/17 06:45:02;;;;;;;22.33;20.23;;;6.50;99.90;;;;;;4993678;28;20784;-73
2021/04/17 06:47:28;;;;;;;22.73;20.30;;;6.60;99.90;;;;;;4993566;28;20472;-73
2021/04/17 06:49:55;;;;;;;23.23;21.00;;;6.70;99.90;;;;;;4993382;28;20481;-73
2021/04/17 06:52:26;;;;;;;21.43;19.67;;;6.80;99.90;;;;;;4993622;28;20457;-73
2021/04/17 06:54:53;;;;;;;23.43;21.57;;;7.10;99.90;;;;;;4993446;28;20493;-73
2021/04/17 06:57:20;;;;;;;22.80;20.90;;;7.40;99.90;;;;;;4993559;28;20472;-73
2021/04/17 06:59:47;;;;;;;22.60;20.87;;;7.50;99.90;;;;;;4993400;28;20512;-74
2021/04/17 07:02:16;;;;;;;25.07;23.07;;;8.00;99.90;;;;;;4993355;28;20457;-73
2021/04/17 07:04:43;;;;;;;24.53;22.63;;;8.50;99.90;;;;;;4993508;28;20447;-73
2021/04/17 07:07:09;;;;;;;23.07;21.07;;;8.70;99.90;;;;;;4993442;28;20454;-73
2021/04/17 07:09:37;;;;;;;24.20;21.90;;;9.00;99.90;;;;;;4993332;28;20458;-73
2021/04/17 07:12:03;;;;;;;22.43;20.80;;;9.50;99.90;;;;;;4993504;28;20471;-74
2021/04/17 07:14:42;;;;;;;24.17;21.77;;;9.80;99.90;;;;;;4993281;28;20499;-74
2021/04/17 07:17:09;;;;;;;23.87;21.97;;;10.60;99.90;;;;;;4993163;28;21005;-74
2021/04/17 07:19:46;;;;;;;25.00;22.93;;;11.50;98.90;;;;;;4993391;28;20551;-73
2021/04/17 07:22:17;;;;;;;23.43;21.60;;;12.10;96.20;;;;;;4993335;28;20454;-74
2021/04/17 07:24:45;;;;;;;24.03;22.23;;;12.60;95.10;;;;;;4993190;28;20505;-74
2021/04/17 07:27:30;;;;;;;24.07;22.33;;;12.70;94.60;;;;;;4993057;28;20455;-74
2021/04/17 07:29:56;;;;;;;23.43;21.53;;;13.00;94.10;;;;;;4993344;28;20811;-73
2021/04/17 07:32:23;;;;;;;22.87;21.10;;;12.90;93.10;;;;;;4993124;28;20451;-73
2021/04/17 07:35:05;;;;;;;22.90;21.10;;;13.20;93.30;;;;;;4992316;28;20498;-73
2021/04/17 07:37:31;;;;;;;23.93;22.07;;;13.50;92.30;;;;;;4992971;28;20454;-75
2021/04/17 07:40:19;;;;;;;23.50;21.80;;;13.30;92.10;;;;;;4992878;28;20458;-75
2021/04/17 07:42:47;;;;;;;25.40;23.23;;;13.90;91.60;;;;;;4992875;28;20450;-75
2021/04/17 07:45:24;;;;;;;24.23;22.53;;;14.40;91.10;;;;;;4992983;28;20864;-74
2021/04/17 07:47:50;;;;;;;24.73;22.87;;;15.00;88.30;;;;;;4992628;28;20466;-75
2021/04/17 16:15:42;;;;;;;11.20;10.50;;;12.30;74.00;;;;;;5146647;23;20483;-72
2021/04/17 16:18:10;;;;;;;10.53;10.10;;;12.00;73.90;;;;;;4973173;28;20499;-72
2021/04/17 16:20:38;;;;;;;12.33;11.73;;;11.90;74.90;;;;;;4973186;28;20451;-72
2021/04/17 16:23:06;;;;;;;11.90;11.37;;;11.80;75.70;;;;;;4972959;28;20455;-71
2021/04/17 16:25:33;;;;;;;12.00;11.50;;;11.70;77.00;;;;;;4972854;28;20452;-72
2021/04/17 16:28:00;;;;;;;10.67;10.17;;;11.40;78.80;;;;;;4972843;28;20455;-71
2021/04/17 16:30:26;;;;;;;10.77;10.27;;;11.20;79.00;;;;;;4972724;28;20453;-72
2021/04/17 16:32:54;;;;;;;11.90;11.10;;;11.10;80.60;;;;;;4972925;28;20459;-71
2021/04/17 16:35:21;;;;;;;11.33;10.83;;;11.00;81.00;;;;;;4972834;28;20492;-71
2021/04/17 16:37:48;;;;;;;11.77;11.10;;;11.00;81.10;;;;;;4972684;28;20451;-71
2021/04/17 16:40:15;;;;;;;11.03;10.20;;;10.90;81.30;;;;;;4972551;28;20456;-71
2021/04/17 16:42:42;;;;;;;11.80;10.83;;;10.90;82.50;;;;;;4972382;28;20459;-71
2021/04/17 16:45:10;;;;;;;11.23;10.47;;;10.80;82.50;;;;;;4972061;28;20474;-72
2021/04/17 16:47:36;;;;;;;11.70;11.20;;;10.70;83.40;;;;;;4972314;28;20514;-72
2021/04/17 16:50:04;;;;;;;12.63;11.93;;;10.60;85.20;;;;;;4972143;28;20455;-72
2021/04/17 16:52:31;;;;;;;11.87;11.23;;;10.60;86.10;;;;;;4972204;28;20473;-72
2021/04/17 16:54:57;;;;;;;12.50;11.80;;;10.60;86.60;;;;;;4972001;28;20490;-72
2021/04/17 16:57:23;;;;;;;12.03;11.33;;;10.70;87.10;;;;;;4971509;28;20952;-72
2021/04/17 16:59:49;;;;;;;11.30;10.70;;;10.60;86.90;;;;;;4971524;28;20450;-72
2021/04/17 17:02:16;;;;;;;11.03;10.53;;;10.50;88.00;;;;;;4971714;28;20452;-72
2021/04/17 17:04:42;;;;;;;11.17;10.67;;;10.40;88.60;;;;;;4971454;28;20965;-72
2021/04/17 17:07:09;;;;;;;11.80;11.20;;;10.30;89.80;;;;;;4971785;28;20452;-71
2021/04/17 17:09:35;;;;;;;11.23;10.63;;;10.30;90.30;;;;;;4971913;28;20450;-71
2021/04/17 17:12:01;;;;;;;12.60;11.90;;;10.20;90.50;;;;;;4971733;28;20459;-71
2021/04/17 17:14:28;;;;;;;11.53;10.93;;;10.20;91.00;;;;;;4971380;28;20904;-73
2021/04/17 17:16:54;;;;;;;11.60;10.90;;;10.10;91.50;;;;;;4971482;28;20504;-73
2021/04/17 17:19:20;;;;;;;11.50;11.00;;;10.00;92.10;;;;;;4971687;28;20985;-73
2021/04/17 17:21:47;;;;;;;11.10;10.50;;;9.90;93.30;;;;;;4971352;28;20455;-72
2021/04/17 17:24:14;;;;;;;11.83;11.13;;;9.80;93.90;;;;;;4971449;28;20459;-72
2021/04/17 17:26:40;;;;;;;11.00;10.30;;;9.70;94.40;;;;;;4971052;28;20846;-73
2021/04/17 17:29:07;;;;;;;11.87;11.17;;;9.60;95.10;;;;;;4970942;28;20456;-71
2021/04/17 17:31:33;;;;;;;11.80;10.90;;;9.60;96.00;;;;;;4971375;28;20819;-71
2021/04/17 17:34:00;;;;;;;12.07;11.40;;;9.50;96.40;;;;;;4971226;28;20491;-72
2021/04/17 17:36:26;;;;;;;11.47;10.77;;;9.40;97.00;;;;;;4971302;28;20459;-72
2021/04/17 17:38:53;;;;;;;10.43;9.83;;;9.30;98.00;;;;;;4971444;28;20958;-71
2021/04/17 17:41:20;;;;;;;10.93;10.13;;;9.20;98.60;;;;;;4971473;28;20463;-73
2021/04/17 17:43:46;;;;;;;11.97;11.17;;;9.10;99.80;;;;;;4970992;28;20447;-73
2021/04/17 17:46:12;;;;;;;12.13;11.23;;;9.00;99.90;;;;;;4971380;28;20448;-73
2021/04/17 17:48:38;;;;;;;11.40;10.70;;;8.80;99.90;;;;;;4971318;28;20456;-73
2021/04/17 17:51:05;;;;;;;12.77;11.87;;;8.70;99.90;;;;;;4971432;28;20444;-72
2021/04/17 17:53:31;;;;;;;11.07;10.47;;;8.60;99.90;;;;;;4971226;28;20466;-73
2021/04/17 17:55:57;;;;;;;12.13;11.23;;;8.60;99.90;;;;;;4971223;28;20823;-73
2021/04/17 17:58:26;;;;;;;12.17;11.47;;;8.60;99.90;;;;;;4971345;28;21191;-73
2021/04/17 18:00:52;;;;;;;11.80;10.90;;;8.50;99.90;;;;;;4971129;28;20471;-72
2021/04/17 18:03:19;;;;;;;11.87;11.07;;;8.50;99.90;;;;;;4971196;28;20455;-73
2021/04/17 18:05:46;;;;;;;10.90;10.30;;;8.50;99.90;;;;;;4970962;28;20493;-72
2021/04/17 18:08:12;;;;;;;13.13;12.30;;;8.50;99.90;;;;;;4971029;28;20451;-71
2021/04/17 18:10:38;;;;;;;12.50;11.70;;;8.40;99.90;;;;;;4970800;28;20452;-73
2021/04/17 18:13:06;;;;;;;13.27;12.57;;;8.50;99.90;;;;;;4971028;28;20494;-73
2021/04/17 18:15:33;;;;;;;14.23;13.30;;;8.60;99.90;;;;;;4970927;28;20495;-73
2021/04/17 18:17:59;;;;;;;18.77;17.13;;;8.60;99.90;;;;;;4971214;28;20460;-73
2021/04/17 18:20:25;;;;;;;29.57;27.07;;;8.70;99.90;;;;;;4973208;28;20462;-73
2021/04/17 18:22:52;;;;;;;26.90;24.70;;;8.70;99.90;;;;;;4974503;28;20498;-73
2021/04/17 18:25:18;;;;;;;21.93;20.30;;;8.70;99.90;;;;;;4974736;28;20463;-72
2021/04/17 18:27:44;;;;;;;19.50;18.10;;;8.50;99.90;;;;;;4974526;28;21130;-72
2021/04/17 18:30:13;;;;;;;18.27;17.13;;;8.40;99.90;;;;;;4974460;28;20542;-73
2021/04/17 18:32:40;;;;;;;15.70;14.50;;;8.30;99.90;;;;;;4974303;28;20463;-72
2021/04/17 18:35:08;;;;;;;16.00;14.80;;;8.20;99.90;;;;;;4974352;28;20487;-73
2021/04/17 18:37:34;;;;;;;13.60;12.53;;;8.30;99.90;;;;;;4974145;28;20455;-73
2021/04/17 18:40:00;;;;;;;13.27;12.30;;;8.20;99.90;;;;;;4974444;28;20666;-73
2021/04/17 18:42:26;;;;;;;14.03;13.03;;;8.30;99.90;;;;;;4974205;28;20451;-73
2021/04/17 18:44:53;;;;;;;13.33;12.33;;;8.30;99.90;;;;;;4974132;28;20478;-73
2021/04/17 18:47:19;;;;;;;12.70;12.00;;;8.40;99.90;;;;;;4974203;28;20451;-74
2021/04/17 18:49:46;;;;;;;11.80;11.10;;;8.40;99.90;;;;;;4973839;28;20463;-72
2021/04/17 18:52:12;;;;;;;10.63;9.83;;;8.40;99.90;;;;;;4974101;28;20825;-73
2021/04/17 18:54:38;;;;;;;12.47;11.53;;;8.40;99.90;;;;;;4973873;28;20494;-73
2021/04/17 18:57:04;;;;;;;14.27;13.10;;;8.20;99.90;;;;;;4974206;28;20505;-72
2021/04/17 18:59:31;;;;;;;12.40;11.50;;;8.20;99.90;;;;;;4973980;28;20451;-72
2021/04/17 19:01:57;;;;;;;11.63;10.60;;;8.10;99.90;;;;;;4973706;28;20973;-73
2021/04/17 19:04:25;;;;;;;12.23;11.50;;;8.10;99.90;;;;;;4973977;28;20800;-72
2021/04/17 19:06:52;;;;;;;11.90;11.20;;;8.10;99.90;;;;;;4973828;28;20958;-72
2021/04/17 19:09:20;;;;;;;12.77;11.90;;;8.20;99.90;;;;;;4973807;28;20451;-73
2021/04/17 19:11:46;;;;;;;12.03;11.33;;;8.00;99.90;;;;;;4973598;28;20559;-73
2021/04/17 19:14:13;;;;;;;12.67;11.87;;;8.10;99.90;;;;;;4973223;28;20498;-73
2021/04/17 19:16:39;;;;;;;11.83;11.13;;;8.00;99.90;;;;;;4973516;28;20491;-72
2021/04/17 19:19:05;;;;;;;12.80;12.10;;;8.00;99.90;;;;;;4973838;28;20528;-72
2021/04/17 19:21:31;;;;;;;11.40;10.70;;;8.00;99.90;;;;;;4973588;28;20443;-73
2021/04/17 19:23:59;;;;;;;12.20;11.40;;;8.00;99.90;;;;;;4973368;28;20472;-72
2021/04/17 19:26:25;;;;;;;12.43;11.73;;;8.00;99.90;;;;;;4973096;28;20463;-72
2021/04/17 19:28:52;;;;;;;11.33;10.60;;;8.00;99.90;;;;;;4972913;28;20458;-72
2021/04/17 19:31:18;;;;;;;13.40;12.23;;;7.90;99.90;;;;;;4973084;28;20462;-72
2021/04/17 19:33:44;;;;;;;12.90;12.00;;;7.80;99.90;;;;;;4972741;28;20444;-72
2021/04/17 19:36:11;;;;;;;12.97;12.07;;;7.70;99.90;;;;;;4972930;28;20466;-72
2021/04/17 19:38:37;;;;;;;12.97;11.83;;;7.80;99.90;;;;;;4972845;28;20456;-72
2021/04/17 19:41:05;;;;;;;13.10;12.40;;;7.70;99.90;;;;;;4972855;28;21002;-72
2021/04/17 19:43:32;;;;;;;14.50;13.40;;;7.70;99.90;;;;;;4972716;28;20450;-72
2021/04/17 19:46:00;;;;;;;13.20;12.37;;;7.60;99.90;;;;;;4972637;28;20510;-72
2021/04/17 19:48:26;;;;;;;14.27;13.40;;;7.60;99.90;;;;;;4972667;28;20516;-71
2021/04/17 19:50:52;;;;;;;14.43;13.60;;;7.50;99.90;;;;;;4972638;28;20945;-71
2021/04/17 19:53:18;;;;;;;15.47;14.03;;;7.50;99.90;;;;;;4972663;28;20464;-72
2021/04/17 19:55:45;;;;;;;16.17;14.87;;;7.50;99.90;;;;;;4972321;28;20861;-71
2021/04/17 19:58:13;;;;;;;15.37;14.57;;;7.50;99.90;;;;;;4972397;28;20506;-71
2021/04/17 20:00:39;;;;;;;15.57;14.63;;;7.40;99.90;;;;;;4972517;28;20462;-71
2021/04/17 20:03:06;;;;;;;13.97;13.17;;;7.30;99.90;;;;;;4972684;28;20463;-72
2021/04/17 20:05:33;;;;;;;15.67;14.90;;;7.20;99.90;;;;;;4972439;28;20454;-72
2021/04/17 20:07:59;;;;;;;17.20;16.10;;;7.10;99.90;;;;;;4972334;28;20462;-72
2021/04/17 20:10:26;;;;;;;17.97;16.97;;;7.10;99.90;;;;;;4972416;28;20515;-73
2021/04/17 20:12:52;;;;;;;18.13;17.03;;;7.00;99.90;;;;;;4972033;28;20559;-73
2021/04/17 20:15:19;;;;;;;18.80;17.80;;;7.00;99.90;;;;;;4971996;28;20857;-73
2021/04/17 20:17:46;;;;;;;19.40;18.30;;;6.90;99.90;;;;;;4972058;28;20458;-73
2021/04/17 20:20:13;;;;;;;18.73;17.83;;;6.90;99.90;;;;;;4971961;28;20459;-73
2021/04/17 20:22:39;;;;;;;21.30;20.10;;;6.90;99.90;;;;;;4971905;28;20576;-73
2021/04/17 20:25:07;;;;;;;20.70;19.23;;;6.90;99.90;;;;;;4972101;28;21027;-74
2021/04/17 20:27:34;;;;;;;20.57;19.27;;;6.90;99.90;;;;;;4971923;28;20525;-73
2021/04/17 20:30:01;;;;;;;20.80;19.60;;;6.80;99.90;;;;;;4971923;28;20454;-74
2021/04/17 20:32:28;;;;;;;21.87;20.73;;;6.80;99.90;;;;;;4971757;28;20511;-74
2021/04/17 20:34:54;;;;;;;22.40;21.10;;;6.80;99.90;;;;;;4971629;28;20821;-74
2021/04/17 20:37:21;;;;;;;22.27;20.93;;;6.80;99.90;;;;;;4971980;28;20466;-74
2021/04/17 20:40:16;;;;;;;22.73;21.30;;;6.70;99.90;;;;;;4970605;28;20527;-71
2021/04/17 20:42:42;;;;;;;22.60;21.50;;;6.80;99.90;;;;;;4962866;28;20478;-72
2021/04/17 20:45:09;;;;;;;22.77;21.47;;;6.80;99.90;;;;;;4952580;29;20443;-72
2021/04/17 20:47:36;;;;;;;23.13;21.50;;;6.80;99.90;;;;;;4953019;29;20453;-71
2021/04/17 20:50:03;;;;;;;22.40;21.17;;;6.80;99.90;;;;;;4952818;29;20464;-72
2021/04/17 20:52:29;;;;;;;21.43;20.37;;;6.70;99.90;;;;;;4952869;29;20936;-72
2021/04/17 20:54:55;;;;;;;22.67;21.47;;;6.60;99.90;;;;;;4952862;29;20497;-72
2021/04/17 20:57:21;;;;;;;22.53;21.40;;;6.50;99.90;;;;;;4953131;29;20457;-72
2021/04/17 20:59:47;;;;;;;21.83;20.80;;;6.50;99.90;;;;;;4952614;29;20458;-72